createdAt,value
2019-05-10T00:01:41.656Z,99838.47
2019-05-10T00:04:01.773Z,99840.03
2019-05-10T00:06:21.712Z,99840.77
2019-05-10T00:08:41.957Z,99840.85
2019-05-10T00:10:45.229Z,99841.16
2019-05-10T00:12:51.113Z,99836.55
2019-05-10T00:14:54.001Z,99840.53
2019-05-10T00:16:57.381Z,99839.23
2019-05-10T00:18:58.726Z,99834.55
2019-05-10T00:21:00.123Z,99838.34
2019-05-10T00:23:01.471Z,99836.74
2019-05-10T00:25:05.340Z,99834.37
2019-05-10T00:27:07.043Z,99838.78
2019-05-10T00:29:08.513Z,99834.96
2019-05-10T00:31:10.009Z,99844.50
2019-05-10T00:33:11.395Z,99844.19
2019-05-10T00:35:12.960Z,99842.70
2019-05-10T00:37:14.353Z,99838.87
2019-05-10T00:39:19.205Z,99841.97
2019-05-10T00:41:19.028Z,99839.67
2019-05-10T00:43:20.440Z,99844.81
2019-05-10T00:45:21.791Z,99848.34
2019-05-10T00:47:23.224Z,99847.07
2019-05-10T00:49:24.571Z,99850.06
2019-05-10T00:51:25.952Z,99850.06
2019-05-10T00:53:27.345Z,99850.66
2019-05-10T00:55:28.738Z,99856.98
2019-05-10T00:57:30.089Z,99853.63
2019-05-10T00:59:31.483Z,99853.98
2019-05-10T01:01:32.843Z,99853.48
2019-05-10T01:03:34.214Z,99856.05
2019-05-10T01:05:36.105Z,99855.64
2019-05-10T01:07:37.465Z,99857.17
2019-05-10T01:09:38.873Z,99855.31
2019-05-10T01:11:40.281Z,99859.08
2019-05-10T01:13:41.664Z,99863.37
2019-05-10T01:15:46.424Z,99864.95
2019-05-10T01:17:46.947Z,99866.33
2019-05-10T01:19:48.427Z,99862.96
2019-05-10T01:21:49.846Z,99867.74
2019-05-10T01:23:51.200Z,99861.59
2019-05-10T01:25:52.585Z,99865.09
2019-05-10T01:27:53.952Z,99866.57
2019-05-10T01:29:55.312Z,99864.72
2019-05-10T01:31:56.760Z,99869.35
2019-05-10T01:33:58.217Z,99867.02
2019-05-10T01:35:59.600Z,99870.14
2019-05-10T01:38:00.994Z,99869.48
2019-05-10T01:40:04.495Z,99869.71
2019-05-10T01:42:05.886Z,99869.02
2019-05-10T01:44:07.261Z,99871.27
2019-05-10T01:46:08.683Z,99868.58
2019-05-10T01:48:10.190Z,99872.25
2019-05-10T01:50:11.746Z,99876.97
2019-05-10T01:52:13.171Z,99873.31
2019-05-10T01:54:14.530Z,99879.28
2019-05-10T01:56:15.912Z,99882.38
2019-05-10T01:58:17.312Z,99884.31
2019-05-10T02:00:19.068Z,99886.27
2019-05-10T02:02:20.471Z,99885.69
2019-05-10T02:04:21.834Z,99889.08
2019-05-10T02:06:23.199Z,99886.34
2019-05-10T02:08:24.593Z,99886.75
2019-05-10T02:10:26.075Z,99892.67
2019-05-10T02:12:27.426Z,99897.17
2019-05-10T02:14:28.873Z,99897.23
2019-05-10T02:16:30.318Z,99899.23
2019-05-10T02:18:31.727Z,99901.16
2019-05-10T02:20:33.088Z,99907.27
2019-05-10T02:22:34.951Z,99912.96
2019-05-10T02:24:36.346Z,99911.55
2019-05-10T02:26:37.705Z,99907.81
2019-05-10T02:28:39.073Z,99911.79
2019-05-10T02:30:40.494Z,99909.02
2019-05-10T02:32:41.873Z,99910.75
2019-05-10T02:34:43.232Z,99914.42
2019-05-10T02:36:44.654Z,99919.09
2019-05-10T02:38:46.038Z,99922.83
2019-05-10T02:40:47.437Z,99929.05
2019-05-10T02:42:48.824Z,99930.53
2019-05-10T02:44:50.199Z,99934.60
2019-05-10T02:46:51.599Z,99941.84
2019-05-10T02:48:53.082Z,99941.84
2019-05-10T02:50:54.565Z,99942.78
2019-05-10T02:52:55.970Z,99950.00
2019-05-10T02:54:58.406Z,99946.63
2019-05-10T02:57:01.063Z,99945.47
2019-05-10T02:59:02.632Z,99950.30
2019-05-10T03:01:04.141Z,99944.34
2019-05-10T03:03:06.662Z,99943.13
2019-05-10T03:05:08.374Z,99942.18
2019-05-10T03:07:09.724Z,99948.44
2019-05-10T03:09:11.178Z,99946.38
2019-05-10T03:11:13.410Z,99951.79
2019-05-10T03:13:16.133Z,99958.27
2019-05-10T03:15:17.806Z,99959.42
2019-05-10T03:17:19.184Z,99958.70
2019-05-10T03:19:21.619Z,99960.95
2019-05-10T03:21:23.548Z,99970.43
2019-05-10T03:23:25.159Z,99975.23
2019-05-10T03:25:27.126Z,99979.45
2019-05-10T03:27:28.546Z,99985.99
2019-05-10T03:29:30.017Z,99985.77
2019-05-10T03:31:31.411Z,99992.34
2019-05-10T03:33:32.827Z,99997.23
2019-05-10T03:35:34.245Z,99991.67
2019-05-10T03:37:35.932Z,99988.11
2019-05-10T03:39:37.312Z,99990.77
2019-05-10T03:41:38.937Z,99996.27
2019-05-10T03:43:40.337Z,99998.59
2019-05-10T03:45:41.706Z,99997.86
2019-05-10T03:47:43.152Z,100004.94
2019-05-10T03:49:44.537Z,100005.58
2019-05-10T03:51:45.907Z,100004.20
2019-05-10T03:53:47.324Z,100008.07
2019-05-10T03:55:48.719Z,100002.91
2019-05-10T03:57:50.089Z,100007.06
2019-05-10T03:59:51.488Z,100010.90
2019-05-10T04:01:52.908Z,100018.89
2019-05-10T04:03:54.562Z,100017.44
2019-05-10T04:05:56.063Z,100021.55
2019-05-10T04:07:57.483Z,100021.86
2019-05-10T04:09:58.846Z,100017.13
2019-05-10T04:12:00.305Z,100018.06
2019-05-10T04:14:02.119Z,100018.20
2019-05-10T04:16:03.524Z,100021.44
2019-05-10T04:18:04.952Z,100027.87
2019-05-10T04:20:07.060Z,100025.98
2019-05-10T04:22:08.440Z,100026.14
2019-05-10T04:24:09.872Z,100027.08
2019-05-10T04:26:11.620Z,100034.05
2019-05-10T04:28:13.093Z,100029.63
2019-05-10T04:30:15.408Z,100032.48
2019-05-10T04:32:16.881Z,100040.63
2019-05-10T04:34:18.291Z,100041.11
2019-05-10T04:36:19.693Z,100043.77
2019-05-10T04:38:21.066Z,100050.42
2019-05-10T04:40:22.465Z,100058.58
2019-05-10T04:42:23.884Z,100057.21
2019-05-10T04:44:25.245Z,100061.41
2019-05-10T04:46:26.625Z,100064.53
2019-05-10T04:48:28.021Z,100067.33
2019-05-10T04:50:29.476Z,100072.78
2019-05-10T04:52:30.852Z,100075.53
2019-05-10T04:54:32.264Z,100074.50
2019-05-10T04:56:33.632Z,100076.33
2019-05-10T04:58:35.013Z,100076.05
2019-05-10T05:00:36.430Z,100076.67
2019-05-10T05:02:37.799Z,100074.09
2019-05-10T05:04:39.179Z,100079.44
2019-05-10T05:06:40.593Z,100078.73
2019-05-10T05:08:41.995Z,100078.76
2019-05-10T05:10:43.376Z,100074.90
2019-05-10T05:12:44.810Z,100082.16
2019-05-10T05:14:46.170Z,100079.46
2019-05-10T05:16:47.660Z,100088.26
2019-05-10T05:18:49.386Z,100090.36
2019-05-10T05:20:50.986Z,100086.80
2019-05-10T05:22:52.461Z,100085.31
2019-05-10T05:24:55.223Z,100087.50
2019-05-10T05:26:57.234Z,100089.77
2019-05-10T05:28:58.624Z,100090.16
2019-05-10T05:31:00.043Z,100089.72
2019-05-10T05:33:01.616Z,100089.68
2019-05-10T05:35:04.588Z,100089.59
2019-05-10T05:37:05.996Z,100093.52
2019-05-10T05:39:07.372Z,100096.96
2019-05-10T05:41:08.769Z,100098.05
2019-05-10T05:43:10.244Z,100091.98
2019-05-10T05:45:12.197Z,100101.63
2019-05-10T05:47:13.582Z,100103.11
2019-05-10T05:49:14.964Z,100105.65
2019-05-10T05:51:16.377Z,100102.79
2019-05-10T05:53:17.751Z,100105.67
2019-05-10T05:55:22.696Z,100105.37
2019-05-10T05:57:27.769Z,100110.45
2019-05-10T05:59:26.342Z,100112.23
2019-05-10T06:01:29.539Z,100114.00
2019-05-10T06:03:31.151Z,100117.22
2019-05-10T06:05:37.213Z,100112.94
2019-05-10T06:07:39.533Z,100110.72
2019-05-10T06:09:41.050Z,100113.55
2019-05-10T06:11:42.447Z,100114.96
2019-05-10T06:13:43.860Z,100122.46
2019-05-10T06:15:45.343Z,100130.23
2019-05-10T06:17:56.070Z,100130.26
2019-05-10T06:19:50.157Z,100134.44
2019-05-10T06:21:51.520Z,100131.94
2019-05-10T06:23:52.883Z,100143.95
2019-05-10T06:25:54.304Z,100136.98
2019-05-10T06:27:55.682Z,100139.45
2019-05-10T06:29:57.052Z,100136.41
2019-05-10T06:31:59.010Z,100139.86
2019-05-10T06:34:00.541Z,100141.39
2019-05-10T06:36:01.947Z,100143.93
2019-05-10T06:38:03.421Z,100147.98
2019-05-10T06:40:05.522Z,100148.52
2019-05-10T06:42:06.904Z,100149.41
2019-05-10T06:44:08.298Z,100152.66
2019-05-10T06:46:09.665Z,100155.13
2019-05-10T06:48:11.085Z,100163.38
2019-05-10T06:50:13.096Z,100151.97
2019-05-10T06:52:16.312Z,100160.31
2019-05-10T06:54:17.744Z,100155.31
2019-05-10T06:56:19.149Z,100155.95
2019-05-10T06:58:20.508Z,100158.11
2019-05-10T07:00:21.877Z,100152.89
2019-05-10T07:02:26.775Z,100151.80
2019-05-10T07:04:26.574Z,100155.48
2019-05-10T07:06:27.919Z,100160.09
2019-05-10T07:08:43.242Z,100157.19
2019-05-10T07:10:33.651Z,100155.34
2019-05-10T07:12:35.672Z,100162.77
2019-05-10T07:14:43.170Z,100161.53
2019-05-10T07:16:40.379Z,100162.45
2019-05-10T07:18:41.771Z,100160.75
2019-05-10T07:20:43.488Z,100164.50
2019-05-10T07:22:45.014Z,100164.34
2019-05-10T07:24:46.459Z,100169.80
2019-05-10T07:26:47.835Z,100175.75
2019-05-10T07:28:51.911Z,100182.20
2019-05-10T07:30:52.497Z,100174.91
2019-05-10T07:32:54.524Z,100180.35
2019-05-10T07:35:00.827Z,100170.44
2019-05-10T07:37:01.911Z,100176.81
2019-05-10T07:39:08.373Z,100176.98
2019-05-10T07:41:09.122Z,100182.70
2019-05-10T07:43:10.530Z,100186.06
2019-05-10T07:45:11.999Z,100191.44
2019-05-10T07:47:13.374Z,100194.42
2019-05-10T07:49:14.778Z,100191.47
2019-05-10T07:51:16.251Z,100193.72
2019-05-10T07:53:22.778Z,100193.23
2019-05-10T07:55:28.055Z,100197.36
2019-05-10T07:57:26.835Z,100202.13
2019-05-10T07:59:30.333Z,100202.58
2019-05-10T08:01:32.855Z,100206.30
2019-05-10T08:03:35.651Z,100205.89
2019-05-10T08:05:39.184Z,100209.61
2019-05-10T08:07:40.685Z,100210.94
2019-05-10T08:09:45.256Z,100217.84
2019-05-10T08:11:48.347Z,100220.61
2019-05-10T08:13:49.234Z,100225.77
2019-05-10T08:15:50.646Z,100225.39
2019-05-10T08:17:52.005Z,100220.91
2019-05-10T08:19:53.422Z,100225.64
2019-05-10T08:22:00.807Z,100227.70
2019-05-10T08:23:58.951Z,100233.73
2019-05-10T08:26:04.435Z,100236.72
2019-05-10T08:28:05.501Z,100239.50
2019-05-10T08:30:24.311Z,100234.66
2019-05-10T08:32:12.869Z,100232.63
2019-05-10T08:34:14.530Z,100229.52
2019-05-10T08:36:15.924Z,100233.63
2019-05-10T08:38:17.338Z,100237.05
2019-05-10T08:40:19.592Z,100233.16
2019-05-10T08:42:37.627Z,100231.82
2019-05-10T08:44:25.295Z,100229.94
2019-05-10T08:46:37.306Z,100229.77
2019-05-10T08:48:29.978Z,100236.19
2019-05-10T08:50:48.923Z,100242.48
2019-05-10T08:52:34.653Z,100247.17
2019-05-10T08:54:36.058Z,100244.47
2019-05-10T08:56:37.436Z,100254.08
2019-05-10T08:58:38.801Z,100248.62
2019-05-10T09:00:50.652Z,100240.42
2019-05-10T09:02:43.505Z,100249.33
2019-05-10T09:04:49.612Z,100250.18
2019-05-10T09:06:55.347Z,100249.49
2019-05-10T09:08:52.795Z,100248.48
2019-05-10T09:10:54.867Z,100252.64
2019-05-10T09:12:58.153Z,100242.77
2019-05-10T09:15:06.707Z,100245.20
2019-05-10T09:17:04.417Z,100248.47
2019-05-10T09:19:06.233Z,100250.75
2019-05-10T09:21:09.202Z,100251.36
2019-05-10T09:23:15.408Z,100252.61
2019-05-10T09:25:14.446Z,100260.48
2019-05-10T09:27:15.852Z,100262.56
2019-05-10T09:29:17.217Z,100264.97
2019-05-10T09:31:22.826Z,100267.42
2019-05-10T09:33:22.546Z,100273.67
2019-05-10T09:35:24.057Z,100273.53
2019-05-10T09:37:25.459Z,100278.67
2019-05-10T09:39:26.824Z,100280.17
2019-05-10T09:41:33.799Z,100287.91
2019-05-10T09:43:32.072Z,100287.08
2019-05-10T09:45:33.484Z,100288.05
2019-05-10T09:47:34.902Z,100287.16
2019-05-10T09:49:36.284Z,100290.16
2019-05-10T09:51:37.684Z,100289.83
2019-05-10T09:53:39.053Z,100287.52
2019-05-10T09:55:40.455Z,100282.17
2019-05-10T09:57:41.888Z,100286.41
2019-05-10T09:59:43.254Z,100284.99
2019-05-10T10:01:44.632Z,100289.84
2019-05-10T10:03:47.667Z,100286.86
2019-05-10T10:05:49.320Z,100289.16
2019-05-10T10:07:50.709Z,100293.00
2019-05-10T10:09:52.140Z,100290.27
2019-05-10T10:11:57.974Z,100295.02
2019-05-10T10:13:59.804Z,100292.22
2019-05-10T10:16:03.941Z,100296.20
2019-05-10T10:18:03.745Z,100291.11
2019-05-10T10:20:08.164Z,100306.17
2019-05-10T10:22:11.030Z,100310.98
2019-05-10T10:24:17.374Z,100309.29
2019-05-10T10:26:20.362Z,100321.55
2019-05-10T10:28:19.964Z,100321.28
2019-05-10T10:30:24.203Z,100320.70
2019-05-10T10:32:33.152Z,100320.63
2019-05-10T10:34:32.672Z,100321.53
2019-05-10T10:36:32.165Z,100324.66
2019-05-10T10:38:39.160Z,100323.20
2019-05-10T10:40:44.309Z,100329.41
2019-05-10T10:42:40.208Z,100330.61
2019-05-10T10:44:41.583Z,100341.97
2019-05-10T10:46:42.998Z,100341.89
2019-05-10T10:48:49.165Z,100339.02
2019-05-10T10:50:53.819Z,100343.11
2019-05-10T10:52:51.044Z,100341.41
2019-05-10T10:54:52.408Z,100343.20
2019-05-10T10:56:53.802Z,100344.28
2019-05-10T10:58:57.799Z,100351.09
2019-05-10T11:00:58.481Z,100350.94
2019-05-10T11:03:01.888Z,100355.72
2019-05-10T11:05:04.973Z,100354.42
2019-05-10T11:07:10.521Z,100356.41
2019-05-10T11:09:09.789Z,100357.73
2019-05-10T11:11:11.195Z,100350.28
2019-05-10T11:13:18.998Z,100354.96
2019-05-10T11:15:16.429Z,100352.42
2019-05-10T11:17:19.428Z,100348.70
2019-05-10T11:19:20.838Z,100343.22
2019-05-10T11:21:23.298Z,100346.53
2019-05-10T11:23:33.931Z,100348.58
2019-05-10T11:25:28.773Z,100353.97
2019-05-10T11:27:30.936Z,100350.77
2019-05-10T11:29:32.558Z,100348.15
2019-05-10T11:31:33.953Z,100363.41
2019-05-10T11:33:35.319Z,100362.70
2019-05-10T11:35:36.768Z,100359.62
2019-05-10T11:37:38.176Z,100366.23
2019-05-10T11:39:45.479Z,100374.52
2019-05-10T11:41:42.848Z,100379.59
2019-05-10T11:43:44.255Z,100382.72
2019-05-10T11:45:45.649Z,100389.78
2019-05-10T11:47:48.115Z,100384.50
2019-05-10T11:49:50.905Z,100390.53
2019-05-10T11:51:54.984Z,100392.95
2019-05-10T11:53:59.623Z,100392.70
2019-05-10T11:56:01.765Z,100397.03
2019-05-10T11:58:08.506Z,100403.23
2019-05-10T12:00:14.264Z,100399.13
2019-05-10T12:02:33.910Z,100403.47
2019-05-10T12:04:24.073Z,100402.59
2019-05-10T12:06:17.549Z,100403.89
2019-05-10T12:08:18.920Z,100404.14
2019-05-10T12:10:25.177Z,100402.43
2019-05-10T12:12:29.712Z,100406.50
2019-05-10T12:14:27.432Z,100404.72
2019-05-10T12:16:33.073Z,100403.59
2019-05-10T12:18:36.010Z,100403.88
2019-05-10T12:20:51.070Z,100404.80
2019-05-10T12:22:42.046Z,100405.44
2019-05-10T12:24:53.951Z,100402.20
2019-05-10T12:27:13.278Z,100402.38
2019-05-10T12:28:50.896Z,100404.15
2019-05-10T12:30:51.879Z,100402.55
2019-05-10T12:32:56.013Z,100406.63
2019-05-10T12:34:56.833Z,100407.30
2019-05-10T12:37:03.815Z,100408.83
2019-05-10T12:39:01.898Z,100407.88
2019-05-10T12:41:05.428Z,100405.77
2019-05-10T12:43:06.736Z,100404.02
2019-05-10T12:45:09.023Z,100406.67
2019-05-10T12:47:11.402Z,100407.30
2019-05-10T12:49:12.966Z,100414.62
2019-05-10T12:51:16.185Z,100409.23
2019-05-10T12:53:18.529Z,100413.28
2019-05-10T12:55:20.147Z,100413.25
2019-05-10T12:57:21.582Z,100411.14
2019-05-10T12:59:23.035Z,100411.19
2019-05-10T13:01:25.751Z,100410.63
2019-05-10T13:03:31.693Z,100410.83
2019-05-10T13:05:33.853Z,100404.26
2019-05-10T13:07:36.904Z,100404.03
2019-05-10T13:09:40.865Z,100402.14
2019-05-10T13:11:40.997Z,100407.90
2019-05-10T13:13:42.382Z,100419.24
2019-05-10T13:15:43.756Z,100425.31
2019-05-10T13:17:50.455Z,100418.36
2019-05-10T13:19:52.751Z,100423.70
2019-05-10T13:21:53.750Z,100429.46
2019-05-10T13:23:55.378Z,100423.84
2019-05-10T13:25:56.912Z,100430.90
2019-05-10T13:27:58.322Z,100430.86
2019-05-10T13:29:59.738Z,100428.44
2019-05-10T13:32:01.163Z,100423.95
2019-05-10T13:34:02.539Z,100425.17
2019-05-10T13:36:03.906Z,100423.31
2019-05-10T13:38:06.558Z,100420.98
2019-05-10T13:40:08.594Z,100421.34
2019-05-10T13:42:10.099Z,100425.81
2019-05-10T13:44:11.485Z,100431.16
2019-05-10T13:46:12.858Z,100426.91
2019-05-10T13:48:14.254Z,100423.47
2019-05-10T13:50:15.757Z,100433.74
2019-05-10T13:52:17.336Z,100429.20
2019-05-10T13:54:18.688Z,100429.94
2019-05-10T13:56:20.117Z,100434.50
2019-05-10T13:58:21.487Z,100433.12
2019-05-10T14:00:32.986Z,100436.50
2019-05-10T14:02:32.475Z,100435.83
2019-05-10T14:04:33.973Z,100430.16
2019-05-10T14:06:33.157Z,100435.91
2019-05-10T14:08:34.543Z,100441.08
2019-05-10T14:10:35.937Z,100437.32
2019-05-10T14:12:37.344Z,100449.23
2019-05-10T14:14:38.701Z,100451.11
2019-05-10T14:16:40.062Z,100448.10
2019-05-10T14:18:41.456Z,100450.23
2019-05-10T14:20:42.817Z,100449.43
2019-05-10T14:22:48.425Z,100454.88
2019-05-10T14:24:53.477Z,100448.27
2019-05-10T14:26:51.613Z,100457.27
2019-05-10T14:28:54.698Z,100458.62
2019-05-10T14:30:58.525Z,100457.69
2019-05-10T14:32:59.517Z,100460.16
2019-05-10T14:35:01.022Z,100463.22
2019-05-10T14:37:02.397Z,100469.59
2019-05-10T14:39:06.251Z,100461.90
2019-05-10T14:41:10.756Z,100455.17
2019-05-10T14:43:11.015Z,100451.59
2019-05-10T14:45:12.995Z,100457.94
2019-05-10T14:47:14.390Z,100462.27
2019-05-10T14:49:15.773Z,100471.63
2019-05-10T14:51:17.132Z,100467.98
2019-05-10T14:53:20.031Z,100484.05
2019-05-10T14:55:21.850Z,100485.18
2019-05-10T14:57:23.209Z,100497.98
2019-05-10T14:59:24.587Z,100515.75
2019-05-10T15:01:25.988Z,100529.23
2019-05-10T15:03:27.363Z,100532.49
2019-05-10T15:05:28.748Z,100537.55
2019-05-10T15:07:30.204Z,100548.86
2019-05-10T15:09:31.611Z,100535.45
2019-05-10T15:11:33.239Z,100534.58
2019-05-10T15:13:35.449Z,100527.33
2019-05-10T15:15:38.667Z,100532.88
2019-05-10T15:17:40.168Z,100526.05
2019-05-10T15:19:41.556Z,100522.24
2019-05-10T15:21:42.957Z,100523.98
2019-05-10T15:23:44.332Z,100526.98
2019-05-10T15:25:56.706Z,100522.77
2019-05-10T15:27:49.028Z,100524.16
2019-05-10T15:29:50.444Z,100531.66
2019-05-10T15:31:51.812Z,100523.22
2019-05-10T15:33:53.724Z,100521.91
2019-05-10T15:35:55.157Z,100526.55
2019-05-10T15:37:56.511Z,100530.67
2019-05-10T15:40:00.466Z,100531.98
2019-05-10T15:42:02.416Z,100533.96
2019-05-10T15:44:04.185Z,100528.70
2019-05-10T15:46:06.002Z,100533.47
2019-05-10T15:48:07.824Z,100523.91
2019-05-10T15:50:10.589Z,100531.27
2019-05-10T15:52:17.496Z,100530.95
2019-05-10T15:54:16.255Z,100537.56
2019-05-10T15:56:18.035Z,100539.91
2019-05-10T15:58:19.831Z,100533.75
2019-05-10T16:00:25.408Z,100532.39
2019-05-10T16:02:25.891Z,100540.41
2019-05-10T16:04:27.560Z,100541.87
2019-05-10T16:06:32.696Z,100549.49
2019-05-10T16:08:32.996Z,100556.23
2019-05-10T16:10:39.246Z,100551.98
2019-05-10T16:12:43.056Z,100551.67
2019-05-10T16:14:45.465Z,100555.05
2019-05-10T16:16:46.630Z,100557.59
2019-05-10T16:18:48.602Z,100560.39
2019-05-10T16:20:50.417Z,100558.07
2019-05-10T16:22:52.397Z,100564.46
2019-05-10T16:25:00.679Z,100565.36
2019-05-10T16:27:00.049Z,100569.52
2019-05-10T16:29:03.408Z,100575.22
2019-05-10T16:31:05.298Z,100567.54
2019-05-10T16:33:09.619Z,100569.91
2019-05-10T16:35:13.171Z,100575.78
2019-05-10T16:37:14.283Z,100576.47
2019-05-10T16:39:15.698Z,100570.47
2019-05-10T16:41:17.061Z,100575.81
2019-05-10T16:43:23.768Z,100580.50
2019-05-10T16:45:21.777Z,100583.84
2019-05-10T16:47:23.154Z,100585.10
2019-05-10T16:49:24.557Z,100587.59
2019-05-10T16:51:25.933Z,100589.02
2019-05-10T16:53:27.310Z,100590.80
2019-05-10T16:55:28.714Z,100588.07
2019-05-10T16:57:32.158Z,100591.46
2019-05-10T16:59:35.135Z,100592.95
2019-05-10T17:01:36.738Z,100599.20
2019-05-10T17:03:38.115Z,100609.75
2019-05-10T17:05:52.612Z,100609.66
2019-05-10T17:07:42.806Z,100613.81
2019-05-10T17:09:44.257Z,100610.33
2019-05-10T17:11:46.870Z,100616.61
2019-05-10T17:13:48.948Z,100623.57
2019-05-10T17:15:50.320Z,100627.55
2019-05-10T17:17:51.688Z,100636.19
2019-05-10T17:19:53.074Z,100633.48
2019-05-10T17:21:54.491Z,100636.86
2019-05-10T17:23:55.931Z,100640.14
2019-05-10T17:25:57.308Z,100646.52
2019-05-10T17:27:59.973Z,100654.32
2019-05-10T17:30:01.706Z,100662.59
2019-05-10T17:32:03.063Z,100665.13
2019-05-10T17:34:04.445Z,100664.11
2019-05-10T17:36:08.424Z,100667.98
2019-05-10T17:38:14.075Z,100664.77
2019-05-10T17:40:12.636Z,100676.41
2019-05-10T17:42:14.030Z,100675.87
2019-05-10T17:44:17.436Z,100677.99
2019-05-10T17:46:20.712Z,100675.69
2019-05-10T17:48:22.041Z,100678.33
2019-05-10T17:50:23.402Z,100682.36
2019-05-10T17:52:24.811Z,100682.70
2019-05-10T17:54:26.163Z,100677.85
2019-05-10T17:56:27.572Z,100683.65
2019-05-10T17:58:33.653Z,100688.88
2019-05-10T18:00:32.242Z,100693.98
2019-05-10T18:02:33.667Z,100691.94
2019-05-10T18:04:35.039Z,100698.28
2019-05-10T18:06:36.402Z,100700.52
2019-05-10T18:08:37.800Z,100702.09
2019-05-10T18:10:39.203Z,100700.71
2019-05-10T18:12:40.564Z,100704.98
2019-05-10T18:14:42.012Z,100712.67
2019-05-10T18:16:48.215Z,100713.89
2019-05-10T18:18:48.410Z,100715.46
2019-05-10T18:20:50.052Z,100716.71
2019-05-10T18:22:51.407Z,100720.56
2019-05-10T18:24:52.782Z,100721.59
2019-05-10T18:26:54.200Z,100729.59
2019-05-10T18:28:55.568Z,100735.23
2019-05-10T18:30:56.931Z,100732.59
2019-05-10T18:32:58.340Z,100736.22
2019-05-10T18:34:59.801Z,100734.69
2019-05-10T18:37:01.233Z,100736.02
2019-05-10T18:39:08.947Z,100734.02
2019-05-10T18:41:10.383Z,100738.93
2019-05-10T18:43:12.897Z,100736.33
2019-05-10T18:45:15.012Z,100739.44
2019-05-10T18:47:17.170Z,100746.14
2019-05-10T18:49:18.603Z,100741.48
2019-05-10T18:51:24.377Z,100749.81
2019-05-10T18:53:23.297Z,100751.63
2019-05-10T18:55:24.669Z,100756.61
2019-05-10T18:57:26.072Z,100756.44
2019-05-10T18:59:27.441Z,100760.81
2019-05-10T19:01:32.867Z,100763.74
2019-05-10T19:03:33.696Z,100765.80
2019-05-10T19:05:35.403Z,100770.76
2019-05-10T19:07:36.827Z,100768.25
2019-05-10T19:09:38.211Z,100775.22
2019-05-10T19:11:40.891Z,100782.17
2019-05-10T19:13:48.193Z,100781.06
2019-05-10T19:15:52.101Z,100786.91
2019-05-10T19:17:49.286Z,100786.46
2019-05-10T19:19:50.670Z,100787.48
2019-05-10T19:21:52.061Z,100786.34
2019-05-10T19:23:53.641Z,100787.91
2019-05-10T19:25:55.302Z,100797.41
2019-05-10T19:27:56.845Z,100799.84
2019-05-10T19:29:58.325Z,100801.08
2019-05-10T19:31:59.730Z,100808.73
2019-05-10T19:34:01.121Z,100810.24
2019-05-10T19:36:02.585Z,100813.86
2019-05-10T19:38:04.002Z,100811.61
2019-05-10T19:40:06.813Z,100820.67
2019-05-10T19:42:08.197Z,100817.88
2019-05-10T19:44:09.577Z,100818.65
2019-05-10T19:46:10.965Z,100821.41
2019-05-10T19:48:12.370Z,100821.55
2019-05-10T19:50:13.978Z,100817.73
2019-05-10T19:52:15.340Z,100815.87
2019-05-10T19:54:19.434Z,100814.77
2019-05-10T19:56:20.005Z,100814.03
2019-05-10T19:58:21.372Z,100812.73
2019-05-10T20:00:22.957Z,100818.35
2019-05-10T20:02:24.320Z,100818.81
2019-05-10T20:04:25.705Z,100820.63
2019-05-10T20:06:27.116Z,100824.05
2019-05-10T20:08:28.500Z,100828.44
2019-05-10T20:10:29.904Z,100822.83
2019-05-10T20:12:31.280Z,100826.37
2019-05-10T20:14:32.695Z,100830.10
2019-05-10T20:16:34.098Z,100830.95
2019-05-10T20:18:35.456Z,100836.17
2019-05-10T20:20:36.824Z,100829.48
2019-05-10T20:22:38.248Z,100822.73
2019-05-10T20:24:39.652Z,100827.95
2019-05-10T20:26:41.036Z,100829.41
2019-05-10T20:28:42.439Z,100831.26
2019-05-10T20:30:43.854Z,100839.30
2019-05-10T20:32:45.240Z,100839.02
2019-05-10T20:34:46.620Z,100841.33
2019-05-10T20:36:48.034Z,100840.82
2019-05-10T20:38:49.403Z,100843.02
2019-05-10T20:40:50.766Z,100841.74
2019-05-10T20:42:52.178Z,100845.99
2019-05-10T20:45:06.633Z,100849.52
2019-05-10T20:46:56.890Z,100848.44
2019-05-10T20:48:58.264Z,100842.12
2019-05-10T20:50:59.688Z,100842.45
2019-05-10T20:53:01.141Z,100841.27
2019-05-10T20:55:04.631Z,100840.51
2019-05-10T20:57:06.050Z,100839.75
2019-05-10T20:59:07.531Z,100838.27
2019-05-10T21:01:08.889Z,100838.53
2019-05-10T21:03:10.313Z,100841.98
2019-05-10T21:05:11.831Z,100843.26
2019-05-10T21:07:13.189Z,100846.61
2019-05-10T21:09:14.562Z,100855.30
2019-05-10T21:11:16.110Z,100846.37
2019-05-10T21:13:17.486Z,100849.45
2019-05-10T21:15:18.920Z,100846.11
2019-05-10T21:17:20.311Z,100847.27
2019-05-10T21:19:21.688Z,100851.34
2019-05-10T21:21:23.088Z,100853.44
2019-05-10T21:23:24.465Z,100854.86
2019-05-10T21:25:25.845Z,100855.54
2019-05-10T21:27:27.253Z,100854.70
2019-05-10T21:29:28.637Z,100852.04
2019-05-10T21:31:30.036Z,100855.98
2019-05-10T21:33:31.452Z,100856.65
2019-05-10T21:35:32.913Z,100863.05
2019-05-10T21:37:34.292Z,100858.47
2019-05-10T21:39:35.698Z,100858.70
2019-05-10T21:41:37.059Z,100862.14
2019-05-10T21:43:38.433Z,100862.83
2019-05-10T21:45:39.851Z,100859.29
2019-05-10T21:47:51.142Z,100856.91
2019-05-10T21:49:44.492Z,100864.62
2019-05-10T21:51:45.937Z,100866.84
2019-05-10T21:53:47.526Z,100867.73
2019-05-10T21:55:48.894Z,100871.41
2019-05-10T21:57:50.304Z,100872.48
2019-05-10T21:59:51.662Z,100868.59
2019-05-10T22:01:53.271Z,100878.77
2019-05-10T22:03:54.982Z,100872.53
2019-05-10T22:05:56.357Z,100876.41
2019-05-10T22:07:57.734Z,100870.30
2019-05-10T22:09:59.145Z,100882.27
2019-05-10T22:12:00.511Z,100885.95
2019-05-10T22:14:01.947Z,100886.21
2019-05-10T22:16:03.301Z,100891.20
2019-05-10T22:18:04.705Z,100888.20
2019-05-10T22:20:06.390Z,100884.72
2019-05-10T22:22:07.754Z,100890.14
2019-05-10T22:24:09.182Z,100888.60
2019-05-10T22:26:10.576Z,100891.58
2019-05-10T22:28:11.963Z,100896.06
2019-05-10T22:30:13.871Z,100900.91
2019-05-10T22:32:15.286Z,100907.14
2019-05-10T22:34:16.669Z,100908.92
2019-05-10T22:36:18.039Z,100904.95
2019-05-10T22:38:19.458Z,100911.56
2019-05-10T22:40:20.851Z,100919.69
2019-05-10T22:42:22.216Z,100924.20
2019-05-10T22:44:23.633Z,100925.45
2019-05-10T22:46:25.018Z,100921.87
2019-05-10T22:48:26.414Z,100919.95
2019-05-10T22:50:27.787Z,100919.73
2019-05-10T22:52:29.314Z,100915.33
2019-05-10T22:54:30.715Z,100922.54
2019-05-10T22:56:32.117Z,100922.89
2019-05-10T22:58:33.491Z,100915.44
2019-05-10T23:00:34.987Z,100916.06
2019-05-10T23:02:36.348Z,100919.69
2019-05-10T23:04:37.779Z,100924.94
2019-05-10T23:06:39.166Z,100916.42
2019-05-10T23:08:40.577Z,100920.31
2019-05-10T23:10:41.940Z,100914.05
2019-05-10T23:12:43.490Z,100915.07
2019-05-10T23:14:44.877Z,100920.12
2019-05-10T23:16:46.288Z,100924.41
2019-05-10T23:18:47.662Z,100927.43